sensor_id;sensor_type;location;lat;lon;timestamp;P1;durP1;ratioP1;P2;durP2;ratioP2
51451;SDS011;37521;52.020;-1.740;2023-07-31T00:00:17;2.60;;;1.05;;
51451;SDS011;37521;52.020;-1.740;2023-07-31T00:02:47;1.40;;;0.45;;
51451;SDS011;37521;52.020;-1.740;2023-07-31T00:05:16;1.40;;;0.98;;
51451;SDS011;37521;52.020;-1.740;2023-07-31T00:07:45;0.38;;;0.38;;
51451;SDS011;37521;52.020;-1.740;2023-07-31T00:10:13;2.63;;;0.60;;
51451;SDS011;37521;52.020;-1.740;2023-07-31T00:12:42;2.42;;;0.57;;
51451;SDS011;37521;52.020;-1.740;2023-07-31T00:15:12;5.25;;;0.57;;
51451;SDS011;37521;52.020;-1.740;2023-07-31T00:17:41;0.88;;;0.52;;
51451;SDS011;37521;52.020;-1.740;2023-07-31T00:20:11;1.42;;;0.40;;
51451;SDS011;37521;52.020;-1.740;2023-07-31T00:22:40;0.38;;;0.38;;
51451;SDS011;37521;52.020;-1.740;2023-07-31T00:25:09;1.00;;;0.95;;
51451;SDS011;37521;52.020;-1.740;2023-07-31T00:27:37;0.77;;;0.40;;
51451;SDS011;37521;52.020;-1.740;2023-07-31T00:30:11;0.38;;;0.38;;
51451;SDS011;37521;52.020;-1.740;2023-07-31T00:32:40;3.05;;;0.40;;
51451;SDS011;37521;52.020;-1.740;2023-07-31T00:35:11;0.77;;;0.50;;
51451;SDS011;37521;52.020;-1.740;2023-07-31T00:37:40;0.73;;;0.38;;
51451;SDS011;37521;52.020;-1.740;2023-07-31T00:40:09;0.40;;;0.40;;
51451;SDS011;37521;52.020;-1.740;2023-07-31T00:42:37;1.55;;;0.85;;
51451;SDS011;37521;52.020;-1.740;2023-07-31T00:45:07;1.38;;;0.30;;
51451;SDS011;37521;52.020;-1.740;2023-07-31T00:47:36;0.38;;;0.38;;
51451;SDS011;37521;52.020;-1.740;2023-07-31T00:50:06;2.72;;;0.47;;
51451;SDS011;37521;52.020;-1.740;2023-07-31T00:52:38;1.00;;;0.22;;
51451;SDS011;37521;52.020;-1.740;2023-07-31T00:55:07;0.90;;;0.22;;
51451;SDS011;37521;52.020;-1.740;2023-07-31T00:57:36;0.68;;;0.30;;
51451;SDS011;37521;52.020;-1.740;2023-07-31T01:00:08;1.23;;;0.20;;
51451;SDS011;37521;52.020;-1.740;2023-07-31T01:02:38;0.43;;;0.32;;
51451;SDS011;37521;52.020;-1.740;2023-07-31T01:05:07;0.70;;;0.10;;
51451;SDS011;37521;52.020;-1.740;2023-07-31T01:07:39;1.02;;;0.32;;
51451;SDS011;37521;52.020;-1.740;2023-07-31T01:10:20;0.30;;;0.30;;
51451;SDS011;37521;52.020;-1.740;2023-07-31T01:12:51;0.20;;;0.20;;
51451;SDS011;37521;52.020;-1.740;2023-07-31T01:15:21;0.60;;;0.60;;
51451;SDS011;37521;52.020;-1.740;2023-07-31T01:17:50;0.38;;;0.20;;
51451;SDS011;37521;52.020;-1.740;2023-07-31T01:20:20;0.03;;;0.03;;
51451;SDS011;37521;52.020;-1.740;2023-07-31T01:22:58;3.38;;;0.47;;
51451;SDS011;37521;52.020;-1.740;2023-07-31T01:25:53;0.38;;;0.30;;
51451;SDS011;37521;52.020;-1.740;2023-07-31T01:28:29;0.30;;;0.10;;
51451;SDS011;37521;52.020;-1.740;2023-07-31T01:31:06;1.27;;;0.25;;
51451;SDS011;37521;52.020;-1.740;2023-07-31T01:33:39;0.75;;;0.20;;
51451;SDS011;37521;52.020;-1.740;2023-07-31T01:36:08;0.20;;;0.20;;
51451;SDS011;37521;52.020;-1.740;2023-07-31T01:38:37;0.80;;;0.10;;
51451;SDS011;37521;52.020;-1.740;2023-07-31T01:41:09;0.05;;;0.05;;
51451;SDS011;37521;52.020;-1.740;2023-07-31T01:43:37;2.03;;;0.20;;
51451;SDS011;37521;52.020;-1.740;2023-07-31T01:46:07;0.30;;;0.10;;
51451;SDS011;37521;52.020;-1.740;2023-07-31T01:48:37;1.15;;;0.00;;
51451;SDS011;37521;52.020;-1.740;2023-07-31T01:51:05;0.40;;;0.22;;
51451;SDS011;37521;52.020;-1.740;2023-07-31T01:53:35;0.10;;;0.10;;
51451;SDS011;37521;52.020;-1.740;2023-07-31T01:56:03;0.25;;;0.08;;
51451;SDS011;37521;52.020;-1.740;2023-07-31T01:58:34;0.00;;;0.00;;
51451;SDS011;37521;52.020;-1.740;2023-07-31T02:01:03;0.10;;;0.10;;
51451;SDS011;37521;52.020;-1.740;2023-07-31T02:03:33;0.22;;;0.10;;
51451;SDS011;37521;52.020;-1.740;2023-07-31T02:06:02;0.10;;;0.10;;
51451;SDS011;37521;52.020;-1.740;2023-07-31T02:08:32;0.00;;;0.00;;
51451;SDS011;37521;52.020;-1.740;2023-07-31T02:11:00;0.00;;;0.00;;
51451;SDS011;37521;52.020;-1.740;2023-07-31T02:13:30;0.10;;;0.10;;
51451;SDS011;37521;52.020;-1.740;2023-07-31T02:16:01;0.20;;;0.20;;
51451;SDS011;37521;52.020;-1.740;2023-07-31T02:18:32;0.47;;;0.05;;
51451;SDS011;37521;52.020;-1.740;2023-07-31T02:21:01;0.10;;;0.10;;
51451;SDS011;37521;52.020;-1.740;2023-07-31T02:23:31;0.10;;;0.00;;
51451;SDS011;37521;52.020;-1.740;2023-07-31T02:26:01;0.10;;;0.10;;
51451;SDS011;37521;52.020;-1.740;2023-07-31T02:28:29;0.13;;;0.10;;
51451;SDS011;37521;52.020;-1.740;2023-07-31T02:30:59;0.10;;;0.10;;
51451;SDS011;37521;52.020;-1.740;2023-07-31T02:33:30;0.17;;;0.17;;
51451;SDS011;37521;52.020;-1.740;2023-07-31T02:35:58;0.50;;;0.40;;
51451;SDS011;37521;52.020;-1.740;2023-07-31T02:38:29;0.28;;;0.10;;
51451;SDS011;37521;52.020;-1.740;2023-07-31T02:40:58;0.50;;;0.28;;
51451;SDS011;37521;52.020;-1.740;2023-07-31T02:43:27;2.35;;;0.40;;
51451;SDS011;37521;52.020;-1.740;2023-07-31T02:45:55;0.30;;;0.30;;
51451;SDS011;37521;52.020;-1.740;2023-07-31T02:48:24;0.30;;;0.30;;
51451;SDS011;37521;52.020;-1.740;2023-07-31T02:50:54;0.35;;;0.20;;
51451;SDS011;37521;52.020;-1.740;2023-07-31T02:53:22;0.63;;;0.30;;
51451;SDS011;37521;52.020;-1.740;2023-07-31T02:55:51;0.30;;;0.20;;
51451;SDS011;37521;52.020;-1.740;2023-07-31T02:58:19;0.77;;;0.32;;
51451;SDS011;37521;52.020;-1.740;2023-07-31T03:00:49;0.68;;;0.50;;
51451;SDS011;37521;52.020;-1.740;2023-07-31T03:03:18;0.93;;;0.55;;
51451;SDS011;37521;52.020;-1.740;2023-07-31T03:05:48;1.48;;;0.52;;
51451;SDS011;37521;52.020;-1.740;2023-07-31T03:08:19;0.60;;;0.60;;
51451;SDS011;37521;52.020;-1.740;2023-07-31T03:10:48;0.82;;;0.70;;
51451;SDS011;37521;52.020;-1.740;2023-07-31T03:13:17;1.35;;;0.60;;
51451;SDS011;37521;52.020;-1.740;2023-07-31T03:15:46;0.57;;;0.57;;
51451;SDS011;37521;52.020;-1.740;2023-07-31T03:18:15;2.83;;;1.10;;
51451;SDS011;37521;52.020;-1.740;2023-07-31T03:20:43;0.50;;;0.50;;
51451;SDS011;37521;52.020;-1.740;2023-07-31T03:23:12;0.82;;;0.70;;
51451;SDS011;37521;52.020;-1.740;2023-07-31T03:25:52;0.70;;;0.55;;
51451;SDS011;37521;52.020;-1.740;2023-07-31T03:28:27;0.50;;;0.50;;
51451;SDS011;37521;52.020;-1.740;2023-07-31T03:30:57;0.47;;;0.38;;
51451;SDS011;37521;52.020;-1.740;2023-07-31T03:33:26;0.93;;;0.40;;
51451;SDS011;37521;52.020;-1.740;2023-07-31T03:35:55;2.50;;;0.63;;
51451;SDS011;37521;52.020;-1.740;2023-07-31T03:38:24;1.48;;;0.65;;
51451;SDS011;37521;52.020;-1.740;2023-07-31T03:40:54;1.60;;;0.70;;
51451;SDS011;37521;52.020;-1.740;2023-07-31T03:43:24;0.50;;;0.40;;
51451;SDS011;37521;52.020;-1.740;2023-07-31T03:45:53;0.77;;;0.73;;
51451;SDS011;37521;52.020;-1.740;2023-07-31T03:48:24;0.65;;;0.47;;
51451;SDS011;37521;52.020;-1.740;2023-07-31T03:50:54;3.45;;;0.95;;
51451;SDS011;37521;52.020;-1.740;2023-07-31T03:53:23;2.95;;;0.77;;
51451;SDS011;37521;52.020;-1.740;2023-07-31T03:55:52;0.50;;;0.40;;
51451;SDS011;37521;52.020;-1.740;2023-07-31T03:58:22;1.52;;;0.90;;
51451;SDS011;37521;52.020;-1.740;2023-07-31T04:00:50;1.40;;;0.63;;
51451;SDS011;37521;52.020;-1.740;2023-07-31T04:03:19;1.60;;;0.80;;
51451;SDS011;37521;52.020;-1.740;2023-07-31T04:05:47;0.65;;;0.65;;
51451;SDS011;37521;52.020;-1.740;2023-07-31T04:08:16;0.80;;;0.80;;
51451;SDS011;37521;52.020;-1.740;2023-07-31T04:10:44;2.13;;;1.00;;
51451;SDS011;37521;52.020;-1.740;2023-07-31T04:13:15;1.35;;;0.73;;
51451;SDS011;37521;52.020;-1.740;2023-07-31T04:15:47;2.85;;;0.75;;
51451;SDS011;37521;52.020;-1.740;2023-07-31T04:18:18;1.30;;;1.10;;
51451;SDS011;37521;52.020;-1.740;2023-07-31T04:20:48;2.33;;;1.10;;
51451;SDS011;37521;52.020;-1.740;2023-07-31T04:23:16;1.88;;;0.88;;
51451;SDS011;37521;52.020;-1.740;2023-07-31T04:25:45;4.45;;;1.83;;
51451;SDS011;37521;52.020;-1.740;2023-07-31T04:28:13;1.45;;;1.17;;
51451;SDS011;37521;52.020;-1.740;2023-07-31T04:30:44;3.92;;;2.15;;
51451;SDS011;37521;52.020;-1.740;2023-07-31T04:33:16;4.80;;;1.98;;
51451;SDS011;37521;52.020;-1.740;2023-07-31T04:35:48;5.70;;;2.30;;
51451;SDS011;37521;52.020;-1.740;2023-07-31T04:38:21;3.20;;;1.73;;
51451;SDS011;37521;52.020;-1.740;2023-07-31T04:40:50;2.95;;;2.10;;
51451;SDS011;37521;52.020;-1.740;2023-07-31T04:43:20;3.42;;;1.75;;
51451;SDS011;37521;52.020;-1.740;2023-07-31T04:45:48;3.42;;;1.70;;
51451;SDS011;37521;52.020;-1.740;2023-07-31T04:48:17;3.38;;;1.83;;
51451;SDS011;37521;52.020;-1.740;2023-07-31T04:50:45;3.25;;;1.67;;
51451;SDS011;37521;52.020;-1.740;2023-07-31T04:53:14;2.80;;;1.90;;
51451;SDS011;37521;52.020;-1.740;2023-07-31T04:55:43;5.80;;;2.53;;
51451;SDS011;37521;52.020;-1.740;2023-07-31T04:58:12;5.35;;;2.25;;
51451;SDS011;37521;52.020;-1.740;2023-07-31T05:00:43;2.90;;;1.90;;
51451;SDS011;37521;52.020;-1.740;2023-07-31T05:03:11;5.53;;;2.28;;
51451;SDS011;37521;52.020;-1.740;2023-07-31T05:05:41;5.03;;;1.83;;
51451;SDS011;37521;52.020;-1.740;2023-07-31T05:08:10;3.78;;;1.90;;
51451;SDS011;37521;52.020;-1.740;2023-07-31T05:10:38;3.13;;;1.58;;
51451;SDS011;37521;52.020;-1.740;2023-07-31T05:13:08;2.38;;;1.65;;
51451;SDS011;37521;52.020;-1.740;2023-07-31T05:15:38;3.28;;;1.63;;
51451;SDS011;37521;52.020;-1.740;2023-07-31T05:18:09;2.55;;;1.95;;
51451;SDS011;37521;52.020;-1.740;2023-07-31T05:20:37;2.83;;;1.42;;
51451;SDS011;37521;52.020;-1.740;2023-07-31T05:23:06;7.05;;;1.88;;
51451;SDS011;37521;52.020;-1.740;2023-07-31T05:25:35;3.60;;;1.90;;
51451;SDS011;37521;52.020;-1.740;2023-07-31T05:28:04;3.83;;;1.85;;
51451;SDS011;37521;52.020;-1.740;2023-07-31T05:30:33;2.20;;;1.45;;
51451;SDS011;37521;52.020;-1.740;2023-07-31T05:33:02;2.53;;;1.60;;
51451;SDS011;37521;52.020;-1.740;2023-07-31T05:35:33;3.58;;;1.65;;
51451;SDS011;37521;52.020;-1.740;2023-07-31T05:38:01;3.00;;;1.65;;
51451;SDS011;37521;52.020;-1.740;2023-07-31T05:40:31;2.35;;;1.70;;
51451;SDS011;37521;52.020;-1.740;2023-07-31T05:55:19;2.92;;;1.67;;
51451;SDS011;37521;52.020;-1.740;2023-07-31T05:57:50;1.63;;;1.30;;
51451;SDS011;37521;52.020;-1.740;2023-07-31T06:00:18;2.55;;;1.30;;
51451;SDS011;37521;52.020;-1.740;2023-07-31T06:02:47;2.42;;;1.40;;
51451;SDS011;37521;52.020;-1.740;2023-07-31T06:05:16;2.55;;;2.00;;
51451;SDS011;37521;52.020;-1.740;2023-07-31T06:07:45;2.15;;;1.30;;
51451;SDS011;37521;52.020;-1.740;2023-07-31T06:10:14;2.08;;;1.15;;
51451;SDS011;37521;52.020;-1.740;2023-07-31T06:12:44;1.60;;;1.50;;
51451;SDS011;37521;52.020;-1.740;2023-07-31T06:15:12;2.13;;;1.38;;
51451;SDS011;37521;52.020;-1.740;2023-07-31T06:17:41;2.03;;;1.13;;
51451;SDS011;37521;52.020;-1.740;2023-07-31T06:20:10;2.13;;;1.55;;
51451;SDS011;37521;52.020;-1.740;2023-07-31T06:22:39;1.38;;;0.85;;
51451;SDS011;37521;52.020;-1.740;2023-07-31T06:25:07;1.70;;;0.95;;
51451;SDS011;37521;52.020;-1.740;2023-07-31T06:27:41;1.60;;;1.20;;
51451;SDS011;37521;52.020;-1.740;2023-07-31T06:30:11;2.25;;;1.02;;
51451;SDS011;37521;52.020;-1.740;2023-07-31T06:32:40;1.45;;;0.73;;
51451;SDS011;37521;52.020;-1.740;2023-07-31T06:35:08;1.83;;;1.05;;
51451;SDS011;37521;52.020;-1.740;2023-07-31T06:37:37;3.20;;;1.50;;
51451;SDS011;37521;52.020;-1.740;2023-07-31T06:40:07;2.60;;;1.67;;
51451;SDS011;37521;52.020;-1.740;2023-07-31T06:42:37;3.28;;;1.73;;
51451;SDS011;37521;52.020;-1.740;2023-07-31T06:45:05;3.50;;;2.15;;
51451;SDS011;37521;52.020;-1.740;2023-07-31T06:47:36;2.35;;;1.50;;
51451;SDS011;37521;52.020;-1.740;2023-07-31T06:50:05;2.22;;;1.55;;
51451;SDS011;37521;52.020;-1.740;2023-07-31T06:52:34;4.45;;;1.80;;
51451;SDS011;37521;52.020;-1.740;2023-07-31T06:55:03;2.63;;;1.42;;
51451;SDS011;37521;52.020;-1.740;2023-07-31T06:57:44;3.33;;;2.72;;
51451;SDS011;37521;52.020;-1.740;2023-07-31T07:00:13;3.20;;;1.92;;
51451;SDS011;37521;52.020;-1.740;2023-07-31T07:02:43;3.05;;;1.75;;
51451;SDS011;37521;52.020;-1.740;2023-07-31T07:05:14;4.38;;;1.70;;
51451;SDS011;37521;52.020;-1.740;2023-07-31T07:07:43;4.88;;;1.55;;
51451;SDS011;37521;52.020;-1.740;2023-07-31T07:10:12;4.70;;;1.90;;
51451;SDS011;37521;52.020;-1.740;2023-07-31T07:12:41;3.97;;;2.38;;
51451;SDS011;37521;52.020;-1.740;2023-07-31T07:15:09;5.13;;;2.17;;
51451;SDS011;37521;52.020;-1.740;2023-07-31T07:17:38;3.42;;;2.28;;
51451;SDS011;37521;52.020;-1.740;2023-07-31T07:20:09;3.47;;;2.33;;
51451;SDS011;37521;52.020;-1.740;2023-07-31T07:22:37;4.30;;;2.40;;
51451;SDS011;37521;52.020;-1.740;2023-07-31T07:25:06;3.90;;;2.50;;
51451;SDS011;37521;52.020;-1.740;2023-07-31T07:27:35;6.03;;;2.08;;
51451;SDS011;37521;52.020;-1.740;2023-07-31T07:30:04;3.10;;;1.98;;
51451;SDS011;37521;52.020;-1.740;2023-07-31T07:32:33;4.63;;;2.53;;
51451;SDS011;37521;52.020;-1.740;2023-07-31T07:35:02;4.13;;;1.85;;
51451;SDS011;37521;52.020;-1.740;2023-07-31T07:37:33;8.15;;;2.17;;
51451;SDS011;37521;52.020;-1.740;2023-07-31T07:40:01;7.25;;;2.70;;
51451;SDS011;37521;52.020;-1.740;2023-07-31T07:42:30;5.18;;;2.22;;
51451;SDS011;37521;52.020;-1.740;2023-07-31T07:44:59;3.72;;;2.30;;
51451;SDS011;37521;52.020;-1.740;2023-07-31T07:47:28;4.55;;;2.53;;
51451;SDS011;37521;52.020;-1.740;2023-07-31T07:49:56;4.88;;;2.28;;
51451;SDS011;37521;52.020;-1.740;2023-07-31T07:52:24;4.40;;;1.77;;
51451;SDS011;37521;52.020;-1.740;2023-07-31T07:54:54;1.83;;;1.65;;
51451;SDS011;37521;52.020;-1.740;2023-07-31T07:57:23;5.47;;;2.42;;
51451;SDS011;37521;52.020;-1.740;2023-07-31T07:59:52;3.97;;;2.25;;
51451;SDS011;37521;52.020;-1.740;2023-07-31T08:02:21;3.95;;;1.85;;
51451;SDS011;37521;52.020;-1.740;2023-07-31T08:04:50;4.05;;;1.92;;
51451;SDS011;37521;52.020;-1.740;2023-07-31T08:07:18;4.90;;;1.52;;
51451;SDS011;37521;52.020;-1.740;2023-07-31T08:09:47;2.50;;;1.45;;
51451;SDS011;37521;52.020;-1.740;2023-07-31T08:12:17;6.10;;;1.88;;
51451;SDS011;37521;52.020;-1.740;2023-07-31T08:14:45;5.00;;;2.22;;
51451;SDS011;37521;52.020;-1.740;2023-07-31T08:17:13;4.00;;;1.80;;
51451;SDS011;37521;52.020;-1.740;2023-07-31T08:19:42;1.98;;;1.45;;
51451;SDS011;37521;52.020;-1.740;2023-07-31T08:22:11;2.13;;;1.27;;
51451;SDS011;37521;52.020;-1.740;2023-07-31T08:24:41;2.88;;;1.90;;
51451;SDS011;37521;52.020;-1.740;2023-07-31T08:27:10;2.60;;;1.45;;
51451;SDS011;37521;52.020;-1.740;2023-07-31T08:29:40;4.22;;;2.10;;
51451;SDS011;37521;52.020;-1.740;2023-07-31T08:32:09;4.13;;;2.17;;
51451;SDS011;37521;52.020;-1.740;2023-07-31T08:34:37;6.13;;;2.53;;
51451;SDS011;37521;52.020;-1.740;2023-07-31T08:37:05;5.20;;;2.22;;
51451;SDS011;37521;52.020;-1.740;2023-07-31T08:39:34;3.35;;;2.33;;
51451;SDS011;37521;52.020;-1.740;2023-07-31T08:42:07;6.90;;;1.73;;
51451;SDS011;37521;52.020;-1.740;2023-07-31T08:44:36;5.93;;;1.85;;
51451;SDS011;37521;52.020;-1.740;2023-07-31T08:47:07;4.35;;;1.70;;
51451;SDS011;37521;52.020;-1.740;2023-07-31T08:49:36;3.00;;;1.52;;
51451;SDS011;37521;52.020;-1.740;2023-07-31T08:52:07;3.22;;;1.35;;
51451;SDS011;37521;52.020;-1.740;2023-07-31T08:54:35;4.10;;;2.13;;
51451;SDS011;37521;52.020;-1.740;2023-07-31T08:57:04;8.20;;;1.45;;
51451;SDS011;37521;52.020;-1.740;2023-07-31T08:59:35;4.60;;;1.20;;
51451;SDS011;37521;52.020;-1.740;2023-07-31T09:02:05;4.03;;;1.52;;
51451;SDS011;37521;52.020;-1.740;2023-07-31T09:04:38;3.17;;;1.65;;
51451;SDS011;37521;52.020;-1.740;2023-07-31T09:07:06;2.28;;;1.02;;
51451;SDS011;37521;52.020;-1.740;2023-07-31T09:09:36;3.72;;;1.67;;
51451;SDS011;37521;52.020;-1.740;2023-07-31T09:12:04;2.80;;;1.60;;
51451;SDS011;37521;52.020;-1.740;2023-07-31T09:14:34;5.75;;;1.88;;
51451;SDS011;37521;52.020;-1.740;2023-07-31T09:17:04;3.33;;;1.40;;
51451;SDS011;37521;52.020;-1.740;2023-07-31T09:19:34;3.25;;;1.42;;
51451;SDS011;37521;52.020;-1.740;2023-07-31T09:22:05;1.65;;;1.55;;
51451;SDS011;37521;52.020;-1.740;2023-07-31T09:24:34;2.15;;;1.23;;
51451;SDS011;37521;52.020;-1.740;2023-07-31T09:27:03;3.20;;;1.70;;
51451;SDS011;37521;52.020;-1.740;2023-07-31T09:29:31;1.63;;;1.23;;
51451;SDS011;37521;52.020;-1.740;2023-07-31T09:32:00;2.67;;;1.42;;
51451;SDS011;37521;52.020;-1.740;2023-07-31T09:34:29;2.55;;;1.23;;
51451;SDS011;37521;52.020;-1.740;2023-07-31T09:37:05;3.47;;;1.27;;
51451;SDS011;37521;52.020;-1.740;2023-07-31T09:39:44;7.35;;;2.13;;
51451;SDS011;37521;52.020;-1.740;2023-07-31T09:42:14;6.90;;;1.73;;
51451;SDS011;37521;52.020;-1.740;2023-07-31T09:44:53;6.25;;;1.83;;
51451;SDS011;37521;52.020;-1.740;2023-07-31T09:47:25;3.42;;;1.80;;
51451;SDS011;37521;52.020;-1.740;2023-07-31T09:49:54;3.85;;;1.83;;
51451;SDS011;37521;52.020;-1.740;2023-07-31T09:52:23;3.53;;;1.70;;
51451;SDS011;37521;52.020;-1.740;2023-07-31T09:54:57;5.10;;;1.40;;
51451;SDS011;37521;52.020;-1.740;2023-07-31T09:57:25;2.67;;;1.40;;
51451;SDS011;37521;52.020;-1.740;2023-07-31T09:59:55;2.97;;;1.80;;
51451;SDS011;37521;52.020;-1.740;2023-07-31T10:02:24;2.67;;;1.50;;
51451;SDS011;37521;52.020;-1.740;2023-07-31T10:04:54;3.60;;;1.80;;
51451;SDS011;37521;52.020;-1.740;2023-07-31T10:07:28;4.43;;;1.48;;
51451;SDS011;37521;52.020;-1.740;2023-07-31T10:09:58;4.72;;;1.42;;
51451;SDS011;37521;52.020;-1.740;2023-07-31T10:12:30;3.30;;;1.67;;
51451;SDS011;37521;52.020;-1.740;2023-07-31T10:15:01;4.57;;;1.67;;
51451;SDS011;37521;52.020;-1.740;2023-07-31T10:17:30;2.80;;;1.63;;
51451;SDS011;37521;52.020;-1.740;2023-07-31T10:20:00;5.22;;;1.73;;
51451;SDS011;37521;52.020;-1.740;2023-07-31T10:22:32;3.75;;;1.88;;
51451;SDS011;37521;52.020;-1.740;2023-07-31T10:25:02;4.95;;;1.77;;
51451;SDS011;37521;52.020;-1.740;2023-07-31T10:27:32;3.78;;;1.90;;
51451;SDS011;37521;52.020;-1.740;2023-07-31T10:30:03;6.80;;;1.55;;
51451;SDS011;37521;52.020;-1.740;2023-07-31T10:32:33;5.60;;;1.95;;
51451;SDS011;37521;52.020;-1.740;2023-07-31T10:35:03;3.13;;;1.83;;
51451;SDS011;37521;52.020;-1.740;2023-07-31T10:37:37;6.82;;;2.13;;
51451;SDS011;37521;52.020;-1.740;2023-07-31T10:40:09;3.20;;;1.77;;
51451;SDS011;37521;52.020;-1.740;2023-07-31T10:42:45;3.83;;;1.75;;
51451;SDS011;37521;52.020;-1.740;2023-07-31T10:45:23;3.17;;;1.70;;
51451;SDS011;37521;52.020;-1.740;2023-07-31T10:48:00;5.88;;;2.05;;
51451;SDS011;37521;52.020;-1.740;2023-07-31T10:50:30;4.40;;;2.22;;
51451;SDS011;37521;52.020;-1.740;2023-07-31T10:53:01;5.05;;;2.08;;
51451;SDS011;37521;52.020;-1.740;2023-07-31T10:55:31;4.70;;;2.08;;
51451;SDS011;37521;52.020;-1.740;2023-07-31T10:58:05;5.70;;;2.33;;
51451;SDS011;37521;52.020;-1.740;2023-07-31T11:00:36;2.72;;;2.13;;
51451;SDS011;37521;52.020;-1.740;2023-07-31T11:03:08;7.60;;;3.05;;
51451;SDS011;37521;52.020;-1.740;2023-07-31T11:05:49;6.18;;;2.47;;
51451;SDS011;37521;52.020;-1.740;2023-07-31T11:08:22;6.70;;;2.03;;
51451;SDS011;37521;52.020;-1.740;2023-07-31T11:11:04;5.13;;;2.15;;
51451;SDS011;37521;52.020;-1.740;2023-07-31T11:13:39;6.03;;;2.83;;
51451;SDS011;37521;52.020;-1.740;2023-07-31T11:16:09;3.50;;;1.98;;
51451;SDS011;37521;52.020;-1.740;2023-07-31T11:18:39;6.68;;;2.72;;
51451;SDS011;37521;52.020;-1.740;2023-07-31T11:21:09;4.05;;;2.40;;
51451;SDS011;37521;52.020;-1.740;2023-07-31T11:23:45;5.15;;;2.67;;
51451;SDS011;37521;52.020;-1.740;2023-07-31T11:26:14;4.68;;;2.65;;
51451;SDS011;37521;52.020;-1.740;2023-07-31T11:28:43;6.03;;;2.35;;
51451;SDS011;37521;52.020;-1.740;2023-07-31T11:31:14;4.63;;;1.85;;
51451;SDS011;37521;52.020;-1.740;2023-07-31T11:33:44;5.88;;;2.47;;
51451;SDS011;37521;52.020;-1.740;2023-07-31T11:36:16;4.85;;;2.63;;
51451;SDS011;37521;52.020;-1.740;2023-07-31T11:38:47;6.60;;;3.17;;
51451;SDS011;37521;52.020;-1.740;2023-07-31T11:41:15;11.05;;;2.95;;
51451;SDS011;37521;52.020;-1.740;2023-07-31T11:43:45;7.50;;;2.58;;
51451;SDS011;37521;52.020;-1.740;2023-07-31T11:46:14;2.95;;;1.85;;
51451;SDS011;37521;52.020;-1.740;2023-07-31T11:48:43;6.30;;;2.20;;
51451;SDS011;37521;52.020;-1.740;2023-07-31T11:51:12;9.00;;;2.28;;
51451;SDS011;37521;52.020;-1.740;2023-07-31T11:53:42;4.30;;;1.67;;
51451;SDS011;37521;52.020;-1.740;2023-07-31T11:56:16;3.97;;;2.53;;
51451;SDS011;37521;52.020;-1.740;2023-07-31T11:58:46;4.90;;;2.20;;
51451;SDS011;37521;52.020;-1.740;2023-07-31T12:01:17;4.38;;;1.70;;
51451;SDS011;37521;52.020;-1.740;2023-07-31T12:03:47;5.43;;;2.35;;
51451;SDS011;37521;52.020;-1.740;2023-07-31T12:06:17;8.40;;;2.17;;
51451;SDS011;37521;52.020;-1.740;2023-07-31T12:08:47;3.28;;;1.92;;
51451;SDS011;37521;52.020;-1.740;2023-07-31T12:11:17;4.53;;;2.28;;
51451;SDS011;37521;52.020;-1.740;2023-07-31T12:13:46;7.18;;;2.40;;
51451;SDS011;37521;52.020;-1.740;2023-07-31T12:16:14;3.45;;;2.22;;
51451;SDS011;37521;52.020;-1.740;2023-07-31T12:18:43;7.20;;;2.60;;
51451;SDS011;37521;52.020;-1.740;2023-07-31T12:21:13;3.72;;;2.67;;
51451;SDS011;37521;52.020;-1.740;2023-07-31T12:23:43;5.63;;;2.72;;
51451;SDS011;37521;52.020;-1.740;2023-07-31T12:26:12;4.63;;;2.17;;
51451;SDS011;37521;52.020;-1.740;2023-07-31T12:28:44;6.32;;;2.88;;
51451;SDS011;37521;52.020;-1.740;2023-07-31T12:31:14;4.65;;;2.83;;
51451;SDS011;37521;52.020;-1.740;2023-07-31T12:33:44;7.18;;;2.75;;
51451;SDS011;37521;52.020;-1.740;2023-07-31T12:36:15;8.07;;;3.60;;
51451;SDS011;37521;52.020;-1.740;2023-07-31T12:38:44;4.97;;;2.83;;
51451;SDS011;37521;52.020;-1.740;2023-07-31T12:41:13;5.20;;;3.10;;
51451;SDS011;37521;52.020;-1.740;2023-07-31T12:43:44;6.97;;;2.83;;
51451;SDS011;37521;52.020;-1.740;2023-07-31T12:46:13;4.93;;;2.65;;
51451;SDS011;37521;52.020;-1.740;2023-07-31T12:48:44;7.70;;;2.80;;
51451;SDS011;37521;52.020;-1.740;2023-07-31T12:51:12;6.10;;;2.42;;
51451;SDS011;37521;52.020;-1.740;2023-07-31T12:53:41;4.22;;;2.83;;
51451;SDS011;37521;52.020;-1.740;2023-07-31T12:56:09;5.00;;;2.65;;
51451;SDS011;37521;52.020;-1.740;2023-07-31T12:58:38;6.00;;;2.85;;
51451;SDS011;37521;52.020;-1.740;2023-07-31T13:01:08;2.90;;;2.30;;
51451;SDS011;37521;52.020;-1.740;2023-07-31T13:03:36;7.32;;;2.65;;
51451;SDS011;37521;52.020;-1.740;2023-07-31T13:06:05;5.80;;;2.17;;
51451;SDS011;37521;52.020;-1.740;2023-07-31T13:08:34;2.97;;;2.03;;
51451;SDS011;37521;52.020;-1.740;2023-07-31T13:11:02;7.18;;;2.67;;
51451;SDS011;37521;52.020;-1.740;2023-07-31T13:13:31;3.83;;;2.15;;
51451;SDS011;37521;52.020;-1.740;2023-07-31T13:15:59;7.38;;;2.97;;
51451;SDS011;37521;52.020;-1.740;2023-07-31T13:18:30;6.00;;;2.72;;
51451;SDS011;37521;52.020;-1.740;2023-07-31T13:20:58;4.57;;;2.60;;
51451;SDS011;37521;52.020;-1.740;2023-07-31T13:23:27;5.35;;;2.78;;
51451;SDS011;37521;52.020;-1.740;2023-07-31T13:25:55;7.22;;;2.50;;
51451;SDS011;37521;52.020;-1.740;2023-07-31T13:28:24;3.88;;;2.38;;
51451;SDS011;37521;52.020;-1.740;2023-07-31T13:30:52;4.68;;;2.15;;
51451;SDS011;37521;52.020;-1.740;2023-07-31T13:33:21;6.10;;;2.20;;
51451;SDS011;37521;52.020;-1.740;2023-07-31T13:36:05;6.55;;;2.60;;
51451;SDS011;37521;52.020;-1.740;2023-07-31T13:38:34;6.22;;;2.80;;
51451;SDS011;37521;52.020;-1.740;2023-07-31T13:41:02;8.48;;;2.38;;
51451;SDS011;37521;52.020;-1.740;2023-07-31T13:43:32;5.57;;;2.15;;
51451;SDS011;37521;52.020;-1.740;2023-07-31T13:46:00;5.20;;;2.42;;
51451;SDS011;37521;52.020;-1.740;2023-07-31T13:48:34;5.75;;;2.50;;
51451;SDS011;37521;52.020;-1.740;2023-07-31T13:51:02;5.97;;;2.03;;
51451;SDS011;37521;52.020;-1.740;2023-07-31T13:53:32;7.57;;;2.55;;
51451;SDS011;37521;52.020;-1.740;2023-07-31T13:56:01;6.03;;;3.75;;
51451;SDS011;37521;52.020;-1.740;2023-07-31T13:58:30;3.95;;;2.42;;
51451;SDS011;37521;52.020;-1.740;2023-07-31T14:00:58;5.75;;;2.58;;
51451;SDS011;37521;52.020;-1.740;2023-07-31T14:03:27;7.18;;;2.55;;
51451;SDS011;37521;52.020;-1.740;2023-07-31T14:05:55;7.07;;;2.60;;
51451;SDS011;37521;52.020;-1.740;2023-07-31T14:08:25;9.38;;;2.53;;
51451;SDS011;37521;52.020;-1.740;2023-07-31T14:10:54;7.20;;;2.90;;
51451;SDS011;37521;52.020;-1.740;2023-07-31T14:13:22;5.15;;;2.97;;
51451;SDS011;37521;52.020;-1.740;2023-07-31T14:15:51;4.28;;;2.47;;
51451;SDS011;37521;52.020;-1.740;2023-07-31T14:18:19;6.85;;;3.20;;
51451;SDS011;37521;52.020;-1.740;2023-07-31T14:20:49;5.57;;;2.85;;
51451;SDS011;37521;52.020;-1.740;2023-07-31T14:23:17;7.47;;;3.65;;
51451;SDS011;37521;52.020;-1.740;2023-07-31T14:25:48;5.28;;;2.10;;
51451;SDS011;37521;52.020;-1.740;2023-07-31T14:28:16;8.35;;;2.63;;
51451;SDS011;37521;52.020;-1.740;2023-07-31T14:30:45;7.45;;;2.95;;
51451;SDS011;37521;52.020;-1.740;2023-07-31T14:33:14;7.60;;;3.13;;
51451;SDS011;37521;52.020;-1.740;2023-07-31T14:35:42;8.73;;;3.20;;
51451;SDS011;37521;52.020;-1.740;2023-07-31T14:38:11;9.20;;;2.85;;
51451;SDS011;37521;52.020;-1.740;2023-07-31T14:40:40;6.00;;;3.03;;
51451;SDS011;37521;52.020;-1.740;2023-07-31T14:43:11;7.47;;;3.35;;
51451;SDS011;37521;52.020;-1.740;2023-07-31T14:45:42;4.53;;;2.80;;
51451;SDS011;37521;52.020;-1.740;2023-07-31T14:48:13;7.53;;;2.90;;
51451;SDS011;37521;52.020;-1.740;2023-07-31T14:50:41;8.65;;;2.75;;
51451;SDS011;37521;52.020;-1.740;2023-07-31T14:53:09;7.35;;;2.85;;
51451;SDS011;37521;52.020;-1.740;2023-07-31T14:55:38;5.53;;;2.78;;
51451;SDS011;37521;52.020;-1.740;2023-07-31T14:58:06;12.18;;;4.07;;
51451;SDS011;37521;52.020;-1.740;2023-07-31T15:00:40;8.02;;;2.33;;